Details for FedEx at KAFW




Go Back


Latest METAR
Local Time

KAFW 241253Z 00000KT 9SM -RA OVC003CB 09/09 A2982 RMK AO2 LTG DSNT E-SW SLP099 CB S-SW MOV NE P0004 T00940094 $

24/02/2018, 07:51:02

Description
Results
FedEx Logo
Number of Pilots based at KAFW
0 Pilots Based here
Number of FedEx Flights Departed from KAFW
0 Flights Departed
Number of FedEx Flights Arrived at KAFW
0 Flights Arrived
Number of FedEx Schedules Departing from KAFW
55 Schedules
Number of FedEx Schedules Arriving at KAFW
50 Schedules
Number of FedEx Schedules Departing from KAFW availible today
10 Schedules Today
Number of FedEx Schedules Arriving at KAFW availible today
7 Schedules Today
Average Landing Rate at KAFW
0 fpm
FedEx Average Landing Rate at KAFW
0 fpm
Total Fuel Purchased at KAFW by FedEx
0.00 kgs / 0.00 lbs

Pilots Based at KAFW


Pilot ID
Pilot Name
Pilot Rank
No. of Flights
No. of Flying Hours
There are no pilots assigned to this hub!   Will you be the first?
Content